createdAt,value
2023-04-19T00:00:39.153Z,7.85
2023-04-19T00:03:06.997Z,7.84
2023-04-19T00:05:34.255Z,7.85
2023-04-19T00:08:01.385Z,7.80
2023-04-19T00:10:28.459Z,7.79
2023-04-19T00:12:55.869Z,7.82
2023-04-19T00:15:23.001Z,7.86
2023-04-19T00:17:50.178Z,7.86
2023-04-19T00:20:17.362Z,7.87
2023-04-19T00:22:44.420Z,7.85
2023-04-19T00:25:11.621Z,7.84
2023-04-19T00:27:38.858Z,7.84
2023-04-19T00:30:06.418Z,7.80
2023-04-19T00:32:33.517Z,7.74
2023-04-19T00:35:00.644Z,7.72
2023-04-19T00:37:27.752Z,7.72
2023-04-19T00:39:54.857Z,7.68
2023-04-19T00:42:21.992Z,7.65
2023-04-19T00:44:49.068Z,7.67
2023-04-19T00:47:16.249Z,7.68
2023-04-19T00:49:43.500Z,7.66
2023-04-19T00:52:10.631Z,7.66
2023-04-19T00:54:37.764Z,7.65
2023-04-19T00:57:05.655Z,7.64
2023-04-19T00:59:34.380Z,7.63
2023-04-19T01:02:02.119Z,7.62
2023-04-19T01:04:30.158Z,7.59
2023-04-19T01:06:58.386Z,7.59
2023-04-19T01:09:28.392Z,7.58
2023-04-19T01:11:55.853Z,7.53
2023-04-19T01:14:24.183Z,7.49
2023-04-19T01:16:52.346Z,7.48
2023-04-19T01:19:20.479Z,7.46
2023-04-19T01:21:49.787Z,7.37
2023-04-19T01:24:17.912Z,7.35
2023-04-19T01:26:51.075Z,7.36
2023-04-19T01:29:20.790Z,7.31
2023-04-19T01:31:54.168Z,7.27
2023-04-19T01:34:25.745Z,7.28
2023-04-19T01:36:55.250Z,7.23
2023-04-19T01:39:22.464Z,7.22
2023-04-19T01:41:49.547Z,7.17
2023-04-19T01:44:16.844Z,7.13
2023-04-19T01:46:44.022Z,7.08
2023-04-19T01:49:11.157Z,7.01
2023-04-19T01:51:40.268Z,6.99
2023-04-19T01:54:08.500Z,6.98
2023-04-19T01:56:37.169Z,6.96
2023-04-19T01:59:05.016Z,6.96
2023-04-19T02:01:32.819Z,6.97
2023-04-19T02:04:02.610Z,6.97
2023-04-19T02:06:31.020Z,6.92
2023-04-19T02:08:58.229Z,6.89
2023-04-19T02:11:25.452Z,6.84
2023-04-19T02:13:53.056Z,6.81
2023-04-19T02:16:21.521Z,6.82
2023-04-19T02:18:49.377Z,6.81
2023-04-19T02:21:17.386Z,6.84
2023-04-19T02:23:46.030Z,6.84
2023-04-19T02:26:13.502Z,6.83
2023-04-19T02:28:40.560Z,6.77
2023-04-19T02:31:08.854Z,6.72
2023-04-19T02:33:37.856Z,6.70
2023-04-19T02:36:06.513Z,6.68
2023-04-19T02:38:34.824Z,6.67
2023-04-19T02:41:04.748Z,6.64
2023-04-19T02:43:32.020Z,6.67
2023-04-19T02:45:59.165Z,6.69
2023-04-19T02:48:27.204Z,6.69
2023-04-19T02:50:55.303Z,6.68
2023-04-19T02:53:23.145Z,6.64
2023-04-19T02:55:50.657Z,6.64
2023-04-19T02:58:18.600Z,6.64
2023-04-19T03:00:47.029Z,6.65
2023-04-19T03:03:15.223Z,6.63
2023-04-19T03:05:43.819Z,6.62
2023-04-19T03:08:12.655Z,6.59
2023-04-19T03:10:40.926Z,6.54
2023-04-19T03:13:08.300Z,6.47
2023-04-19T03:15:36.656Z,6.41
2023-04-19T03:18:04.606Z,6.39
2023-04-19T03:20:32.428Z,6.37
2023-04-19T03:23:00.707Z,6.32
2023-04-19T03:25:28.510Z,6.27
2023-04-19T03:27:57.308Z,6.27
2023-04-19T03:30:25.179Z,6.26
2023-04-19T03:32:53.505Z,6.18
2023-04-19T03:35:22.444Z,6.13
2023-04-19T03:37:50.795Z,6.06
2023-04-19T03:40:18.730Z,6.03
2023-04-19T03:42:46.601Z,6.03
2023-04-19T03:45:13.751Z,5.97
2023-04-19T03:47:40.850Z,5.96
2023-04-19T03:50:08.465Z,5.91
2023-04-19T03:52:35.538Z,5.85
2023-04-19T03:55:02.686Z,5.86
2023-04-19T03:57:29.723Z,5.85
2023-04-19T03:59:56.780Z,5.82
2023-04-19T04:02:23.955Z,5.76
2023-04-19T04:04:55.083Z,5.73
2023-04-19T04:07:23.184Z,5.70
2023-04-19T04:09:50.624Z,5.68
2023-04-19T04:12:17.672Z,5.64
2023-04-19T04:14:44.784Z,5.65
2023-04-19T04:17:11.806Z,5.61
2023-04-19T04:19:38.844Z,5.57
2023-04-19T04:22:07.054Z,5.51
2023-04-19T04:24:41.471Z,5.46
2023-04-19T04:27:11.934Z,5.46
2023-04-19T04:29:39.732Z,5.42
2023-04-19T04:32:08.706Z,5.44
2023-04-19T04:34:36.742Z,5.38
2023-04-19T04:37:04.129Z,5.38
2023-04-19T04:39:31.263Z,5.34
2023-04-19T04:41:59.618Z,5.30
2023-04-19T04:44:27.752Z,5.26
2023-04-19T04:46:55.264Z,5.26
2023-04-19T04:49:22.628Z,5.27
2023-04-19T04:51:49.690Z,5.22
2023-04-19T04:54:17.205Z,5.24
2023-04-19T04:56:44.553Z,5.27
2023-04-19T04:59:11.644Z,5.22
2023-04-19T05:01:38.791Z,5.23
2023-04-19T05:04:05.963Z,5.19
2023-04-19T05:06:33.030Z,5.21
2023-04-19T05:09:00.068Z,5.23
2023-04-19T05:11:27.319Z,5.20
2023-04-19T05:13:54.468Z,5.21
2023-04-19T05:16:21.767Z,5.18
2023-04-19T05:18:49.505Z,5.10
2023-04-19T05:21:16.560Z,5.09
2023-04-19T05:23:43.610Z,5.09
2023-04-19T05:26:15.335Z,5.12
2023-04-19T05:28:44.136Z,5.07
2023-04-19T05:31:11.851Z,5.03
2023-04-19T05:33:38.956Z,4.99
2023-04-19T05:36:06.653Z,4.98
2023-04-19T05:38:33.694Z,4.96
2023-04-19T05:41:01.058Z,4.98
2023-04-19T05:43:28.461Z,4.94
2023-04-19T05:45:55.554Z,4.94
2023-04-19T05:48:22.691Z,4.94
2023-04-19T05:50:49.762Z,4.95
2023-04-19T05:53:16.874Z,4.88
2023-04-19T05:55:45.555Z,4.86
2023-04-19T05:58:12.942Z,4.81
2023-04-19T06:00:40.076Z,4.72
2023-04-19T06:03:07.656Z,4.69
2023-04-19T06:05:35.453Z,4.67
2023-04-19T06:08:03.194Z,4.68
2023-04-19T06:10:40.445Z,4.65
2023-04-19T06:13:17.584Z,4.62
2023-04-19T06:15:44.769Z,4.64
2023-04-19T06:18:19.537Z,4.56
2023-04-19T06:20:47.188Z,4.58
2023-04-19T06:23:14.907Z,4.62
2023-04-19T06:25:42.251Z,4.65
2023-04-19T06:28:09.764Z,4.69
2023-04-19T06:30:37.047Z,4.74
2023-04-19T06:33:04.211Z,4.78
2023-04-19T06:35:34.343Z,4.82
2023-04-19T06:38:01.357Z,4.87
2023-04-19T06:40:29.380Z,4.90
2023-04-19T06:42:56.460Z,4.98
2023-04-19T06:45:23.635Z,5.05
2023-04-19T06:47:51.004Z,5.11
2023-04-19T06:50:18.417Z,5.11
2023-04-19T06:52:45.634Z,5.10
2023-04-19T06:55:12.751Z,5.09
2023-04-19T06:57:39.802Z,5.07
2023-04-19T07:00:07.849Z,4.99
2023-04-19T07:02:34.969Z,5.00
2023-04-19T07:05:02.200Z,5.05
2023-04-19T07:07:29.672Z,5.16
2023-04-19T07:09:56.717Z,5.33
2023-04-19T07:12:23.779Z,5.41
2023-04-19T07:14:56.234Z,5.40
2023-04-19T07:17:23.946Z,5.40
2023-04-19T07:19:51.047Z,5.46
2023-04-19T07:22:18.112Z,5.48
2023-04-19T07:24:45.237Z,5.49
2023-04-19T07:27:14.317Z,5.47
2023-04-19T07:29:41.472Z,5.44
2023-04-19T07:32:08.862Z,5.49
2023-04-19T07:34:38.206Z,5.60
2023-04-19T07:37:05.306Z,5.82
2023-04-19T07:39:32.907Z,6.10
2023-04-19T07:42:01.672Z,6.33
2023-04-19T07:44:28.695Z,6.61
2023-04-19T07:46:55.868Z,6.82
2023-04-19T07:49:22.958Z,7.02
2023-04-19T07:51:50.671Z,7.21
2023-04-19T07:54:20.206Z,7.44
2023-04-19T07:56:47.254Z,7.76
2023-04-19T07:59:14.326Z,7.99
2023-04-19T08:01:42.683Z,8.20
2023-04-19T08:04:10.044Z,8.32
2023-04-19T08:06:39.772Z,8.45
2023-04-19T08:09:07.128Z,8.63
2023-04-19T08:11:34.258Z,8.63
2023-04-19T08:14:09.267Z,8.79
2023-04-19T08:19:19.059Z,9.11
2023-04-19T08:21:46.198Z,9.22
2023-04-19T08:24:13.274Z,9.33
2023-04-19T08:26:40.475Z,9.41
2023-04-19T08:29:07.671Z,9.49
2023-04-19T08:31:35.329Z,9.67
2023-04-19T08:34:03.081Z,9.85
2023-04-19T08:36:39.068Z,10.07
2023-04-19T08:39:14.628Z,10.20
2023-04-19T08:41:59.067Z,10.23
2023-04-19T08:44:36.508Z,10.27
2023-04-19T08:47:05.160Z,10.30
2023-04-19T08:49:36.126Z,10.37
2023-04-19T08:52:03.347Z,10.56
2023-04-19T08:54:30.595Z,10.79
2023-04-19T08:57:01.975Z,10.90
2023-04-19T08:59:30.887Z,10.94
2023-04-19T09:02:01.204Z,11.05
2023-04-19T09:07:01.547Z,11.21
2023-04-19T09:12:00.720Z,11.27
2023-04-19T09:14:30.037Z,11.15
2023-04-19T09:17:17.088Z,11.25
2023-04-19T09:19:50.595Z,11.42
2023-04-19T09:22:18.136Z,11.48
2023-04-19T09:27:25.526Z,11.46
2023-04-19T09:29:54.274Z,11.31
2023-04-19T09:32:22.232Z,11.34
2023-04-19T09:35:07.624Z,11.31
2023-04-19T09:40:25.036Z,11.16
2023-04-19T09:48:09.822Z,10.81
2023-04-19T09:50:58.993Z,10.82
2023-04-19T09:53:34.009Z,10.94
2023-04-19T09:56:03.091Z,11.12
2023-04-19T10:01:13.541Z,11.11
2023-04-19T10:03:45.360Z,11.05
2023-04-19T10:08:49.562Z,10.94
2023-04-19T10:11:17.587Z,10.84
2023-04-19T10:13:45.327Z,10.97
2023-04-19T10:16:19.390Z,11.27
2023-04-19T10:18:50.291Z,11.58
2023-04-19T10:21:19.388Z,11.77
2023-04-19T10:23:47.181Z,11.83
2023-04-19T10:26:14.507Z,11.71
2023-04-19T10:28:42.158Z,11.67
2023-04-19T10:31:12.957Z,11.53
2023-04-19T10:33:41.444Z,11.43
2023-04-19T10:36:09.932Z,11.45
2023-04-19T10:38:48.225Z,11.19
2023-04-19T10:41:17.542Z,11.09
2023-04-19T10:44:09.180Z,11.06
2023-04-19T10:46:38.097Z,11.29
2023-04-19T10:49:05.991Z,11.34
2023-04-19T10:51:38.811Z,11.18
2023-04-19T10:54:06.825Z,10.91
2023-04-19T10:56:34.153Z,11.01
2023-04-19T10:59:01.298Z,11.07
2023-04-19T11:01:46.545Z,10.95
2023-04-19T11:04:21.471Z,10.61
2023-04-19T11:06:54.636Z,10.45
2023-04-19T11:09:36.073Z,10.66
2023-04-19T11:12:11.207Z,10.76
2023-04-19T11:14:42.472Z,10.50
2023-04-19T11:17:17.240Z,10.32
2023-04-19T11:19:47.440Z,10.10
2023-04-19T11:22:14.827Z,9.98
2023-04-19T11:24:46.232Z,10.01
2023-04-19T11:27:13.325Z,10.12
2023-04-19T11:29:40.379Z,10.24
2023-04-19T11:32:07.987Z,10.42
2023-04-19T11:34:39.165Z,10.58
2023-04-19T11:37:06.262Z,10.54
2023-04-19T11:39:33.300Z,10.40
2023-04-19T11:42:00.803Z,10.38
2023-04-19T11:44:28.094Z,10.48
2023-04-19T11:47:04.092Z,10.64
2023-04-19T11:49:33.137Z,10.90
2023-04-19T11:52:04.684Z,10.94
2023-04-19T11:54:33.091Z,10.84
2023-04-19T11:57:07.274Z,10.73
2023-04-19T11:59:37.188Z,10.63
2023-04-19T12:02:11.523Z,10.57
2023-04-19T12:04:39.901Z,10.49
2023-04-19T12:07:07.370Z,10.46
2023-04-19T12:09:35.977Z,10.44
2023-04-19T12:12:03.581Z,10.45
2023-04-19T12:14:31.563Z,10.54
2023-04-19T12:17:07.964Z,10.57
2023-04-19T12:19:42.470Z,10.55
2023-04-19T12:22:13.797Z,10.49
2023-04-19T12:24:41.400Z,10.31
2023-04-19T12:27:09.159Z,10.17
2023-04-19T12:29:38.452Z,10.07
2023-04-19T12:32:06.242Z,10.04
2023-04-19T12:34:33.617Z,9.96
2023-04-19T12:37:02.661Z,9.88
2023-04-19T12:39:30.264Z,9.85
2023-04-19T12:41:57.519Z,9.91
2023-04-19T12:44:24.677Z,10.13
2023-04-19T12:46:52.036Z,10.33
2023-04-19T12:49:20.051Z,10.49
2023-04-19T12:51:47.756Z,10.70
2023-04-19T12:54:15.485Z,10.89
2023-04-19T12:56:42.723Z,10.94
2023-04-19T12:59:10.072Z,10.79
2023-04-19T13:01:37.213Z,10.55
2023-04-19T13:04:04.602Z,10.28
2023-04-19T13:06:31.804Z,10.00
2023-04-19T13:09:01.153Z,9.83
2023-04-19T13:11:28.645Z,9.63
2023-04-19T13:13:55.880Z,9.53
2023-04-19T13:16:23.130Z,9.24
2023-04-19T13:18:52.354Z,8.87
2023-04-19T13:21:19.672Z,8.65
2023-04-19T13:23:46.713Z,8.43
2023-04-19T13:26:14.257Z,8.25
2023-04-19T13:28:42.403Z,8.16
2023-04-19T13:31:09.581Z,8.12
2023-04-19T13:33:37.001Z,8.17
2023-04-19T13:36:04.267Z,8.14
2023-04-19T13:38:31.445Z,8.19
2023-04-19T13:40:59.209Z,8.22
2023-04-19T13:43:26.503Z,8.28
2023-04-19T13:45:53.974Z,8.36
2023-04-19T13:48:21.562Z,8.43
2023-04-19T13:50:50.892Z,8.45
2023-04-19T13:53:18.348Z,8.52
2023-04-19T13:55:45.453Z,8.66
2023-04-19T13:58:12.631Z,8.86
2023-04-19T14:00:39.817Z,8.95
2023-04-19T14:03:07.075Z,8.98
2023-04-19T14:05:34.171Z,9.12
2023-04-19T14:08:01.678Z,9.15
2023-04-19T14:10:28.798Z,9.23
2023-04-19T14:12:55.937Z,9.32
2023-04-19T14:15:24.152Z,9.35
2023-04-19T14:17:51.865Z,9.02
2023-04-19T14:20:19.240Z,8.62
2023-04-19T14:22:46.611Z,8.22
2023-04-19T14:25:18.132Z,7.98
2023-04-19T14:27:45.230Z,7.90
2023-04-19T14:30:12.642Z,7.75
2023-04-19T14:32:39.769Z,7.76
2023-04-19T14:35:08.535Z,7.80
2023-04-19T14:37:35.695Z,7.91
2023-04-19T14:40:03.373Z,7.97
2023-04-19T14:42:30.487Z,8.18
2023-04-19T14:44:58.384Z,8.31
2023-04-19T14:47:25.937Z,8.37
2023-04-19T14:49:53.123Z,8.41
2023-04-19T14:52:20.277Z,8.41
2023-04-19T14:54:47.339Z,8.55
2023-04-19T14:57:15.028Z,8.82
2023-04-19T14:59:42.261Z,8.90
2023-04-19T15:02:10.891Z,8.80
2023-04-19T15:04:40.973Z,8.54
2023-04-19T15:07:08.725Z,8.41
2023-04-19T15:09:35.795Z,8.45
2023-04-19T15:12:03.221Z,8.42
2023-04-19T15:14:30.443Z,8.27
2023-04-19T15:16:57.525Z,8.01
2023-04-19T15:19:24.948Z,7.68
2023-04-19T15:21:52.080Z,7.45
2023-04-19T15:24:19.219Z,7.29
2023-04-19T15:26:46.337Z,7.13
2023-04-19T15:29:13.460Z,7.01
2023-04-19T15:31:40.835Z,6.92
2023-04-19T15:34:08.124Z,6.73
2023-04-19T15:36:35.354Z,6.69
2023-04-19T15:39:02.556Z,6.63
2023-04-19T15:41:29.649Z,6.67
2023-04-19T15:43:57.337Z,6.71
2023-04-19T15:46:24.457Z,6.78
2023-04-19T15:48:51.594Z,6.86
2023-04-19T15:51:18.685Z,6.97
2023-04-19T15:53:45.808Z,6.99
2023-04-19T15:56:12.852Z,7.04
2023-04-19T15:58:40.726Z,7.05
2023-04-19T16:01:12.403Z,7.01
2023-04-19T16:03:41.460Z,6.93
2023-04-19T16:06:08.734Z,6.90
2023-04-19T16:08:36.092Z,6.86
2023-04-19T16:11:05.228Z,6.83
2023-04-19T16:13:32.800Z,6.75
2023-04-19T16:16:01.342Z,6.66
2023-04-19T16:18:28.565Z,6.58
2023-04-19T16:20:55.738Z,6.56
2023-04-19T16:23:24.522Z,6.57
2023-04-19T16:25:52.669Z,6.59
2023-04-19T16:28:20.441Z,6.65
2023-04-19T16:30:47.964Z,6.62
2023-04-19T16:33:15.738Z,6.60
2023-04-19T16:35:43.429Z,6.49
2023-04-19T16:38:10.852Z,6.45
2023-04-19T16:40:37.951Z,6.37
2023-04-19T16:43:06.587Z,6.33
2023-04-19T16:45:33.925Z,6.28
2023-04-19T16:48:01.157Z,6.15
2023-04-19T16:50:28.432Z,6.07
2023-04-19T16:52:55.663Z,6.03
2023-04-19T16:55:22.923Z,5.99
2023-04-19T16:57:51.226Z,5.96
2023-04-19T17:00:19.142Z,5.91
2023-04-19T17:02:46.298Z,5.89
2023-04-19T17:05:15.882Z,5.91
2023-04-19T17:07:45.954Z,5.79
2023-04-19T17:10:13.610Z,5.68
2023-04-19T17:12:41.081Z,5.66
2023-04-19T17:15:08.821Z,5.59
2023-04-19T17:17:35.936Z,5.55
2023-04-19T17:20:05.326Z,5.52
2023-04-19T17:22:33.240Z,5.50
2023-04-19T17:25:00.450Z,5.55
2023-04-19T17:27:27.839Z,5.44
2023-04-19T17:29:55.408Z,5.44
2023-04-19T17:32:22.475Z,5.44
2023-04-19T17:34:49.541Z,5.41
2023-04-19T17:37:16.854Z,5.38
2023-04-19T17:39:44.243Z,5.31
2023-04-19T17:42:11.250Z,5.21
2023-04-19T17:44:38.567Z,5.19
2023-04-19T17:47:05.691Z,5.18
2023-04-19T17:49:32.745Z,5.17
2023-04-19T17:51:59.856Z,5.21
2023-04-19T17:54:26.924Z,5.24
2023-04-19T17:56:54.574Z,5.27
2023-04-19T17:59:21.669Z,5.23
2023-04-19T18:01:48.894Z,5.26
2023-04-19T18:04:19.773Z,5.22
2023-04-19T18:06:47.234Z,5.30
2023-04-19T18:09:14.904Z,5.34
2023-04-19T18:11:42.512Z,5.41
2023-04-19T18:14:09.690Z,5.41
2023-04-19T18:16:36.950Z,5.44
2023-04-19T18:19:04.187Z,5.44
2023-04-19T18:21:31.328Z,5.31
2023-04-19T18:23:58.362Z,5.20
2023-04-19T18:26:25.440Z,5.17
2023-04-19T18:28:52.505Z,5.21
2023-04-19T18:31:19.557Z,5.27
2023-04-19T18:33:46.877Z,5.21
2023-04-19T18:36:17.164Z,5.26
2023-04-19T18:38:44.192Z,5.16
2023-04-19T18:41:11.302Z,5.18
2023-04-19T18:43:38.907Z,5.23
2023-04-19T18:46:06.210Z,5.23
2023-04-19T18:48:33.334Z,5.22
2023-04-19T18:51:00.361Z,5.23
2023-04-19T18:53:28.589Z,5.25
2023-04-19T18:55:57.679Z,5.18
2023-04-19T18:58:26.126Z,5.20
2023-04-19T19:00:53.760Z,5.22
2023-04-19T19:05:54.726Z,5.27
2023-04-19T19:08:21.996Z,5.32
2023-04-19T19:11:14.333Z,5.37
2023-04-19T19:13:36.361Z,5.38
2023-04-19T19:16:05.284Z,5.39
2023-04-19T19:18:32.623Z,5.34
2023-04-19T19:21:03.199Z,5.33
2023-04-19T19:26:01.137Z,5.24
2023-04-19T19:28:28.223Z,5.28
2023-04-19T19:30:55.366Z,5.29
2023-04-19T19:33:22.547Z,5.21
2023-04-19T19:35:49.582Z,5.17
2023-04-19T19:38:16.662Z,5.14
2023-04-19T19:41:22.175Z,5.19
2023-04-19T19:43:30.953Z,5.24
2023-04-19T19:45:58.310Z,5.29
2023-04-19T19:48:26.015Z,5.27
2023-04-19T19:53:23.325Z,5.02
2023-04-19T19:55:50.826Z,5.07
2023-04-19T19:58:42.958Z,5.15
2023-04-19T20:01:06.288Z,5.19
2023-04-19T20:03:37.327Z,5.23
2023-04-19T20:06:35.806Z,5.24
2023-04-19T20:08:56.245Z,5.26
2023-04-19T20:11:24.768Z,5.29
2023-04-19T20:13:51.953Z,5.31
2023-04-19T20:16:19.643Z,5.34
2023-04-19T20:18:49.088Z,5.35
2023-04-19T20:21:17.886Z,5.33
2023-04-19T20:23:45.432Z,5.33
2023-04-19T20:26:13.323Z,5.24
2023-04-19T20:28:40.377Z,5.18
2023-04-19T20:31:07.455Z,5.11
2023-04-19T20:33:34.575Z,5.17
2023-04-19T20:36:01.957Z,5.23
2023-04-19T20:38:29.501Z,5.29
2023-04-19T20:40:57.085Z,5.26
2023-04-19T20:43:24.157Z,5.25
2023-04-19T20:45:51.264Z,5.20
2023-04-19T20:48:18.462Z,5.02
2023-04-19T20:50:45.596Z,4.94
2023-04-19T20:53:12.666Z,4.94
2023-04-19T20:55:42.140Z,4.85
2023-04-19T20:58:10.138Z,4.88
2023-04-19T21:00:37.168Z,4.85
2023-04-19T21:03:05.981Z,4.78
2023-04-19T21:05:35.062Z,4.81
2023-04-19T21:08:02.338Z,4.83
2023-04-19T21:10:29.405Z,4.83
2023-04-19T21:12:56.445Z,4.89
2023-04-19T21:15:23.567Z,4.84
2023-04-19T21:17:50.730Z,4.85
2023-04-19T21:20:18.219Z,4.87
2023-04-19T21:22:47.035Z,4.74
2023-04-19T21:25:14.191Z,4.69
2023-04-19T21:27:41.749Z,4.72
2023-04-19T21:30:11.578Z,4.75
2023-04-19T21:32:38.766Z,4.84
2023-04-19T21:35:07.305Z,4.92
2023-04-19T21:37:36.520Z,5.00
2023-04-19T21:40:03.850Z,5.04
2023-04-19T21:42:31.222Z,5.07
2023-04-19T21:44:58.254Z,5.11
2023-04-19T21:47:26.420Z,5.11
2023-04-19T21:49:53.886Z,5.16
2023-04-19T21:52:21.278Z,5.22
2023-04-19T21:54:49.250Z,5.23
2023-04-19T21:57:17.607Z,5.24
2023-04-19T21:59:44.674Z,5.27
2023-04-19T22:02:11.907Z,5.28
2023-04-19T22:04:39.550Z,5.28
2023-04-19T22:07:07.684Z,5.24
2023-04-19T22:09:34.752Z,5.22
2023-04-19T22:12:01.886Z,5.23
2023-04-19T22:14:30.656Z,5.23
2023-04-19T22:16:59.762Z,5.20
2023-04-19T22:19:26.986Z,5.20
2023-04-19T22:21:55.007Z,5.22
2023-04-19T22:24:22.386Z,5.21
2023-04-19T22:26:50.126Z,5.23
2023-04-19T22:29:17.459Z,5.25
2023-04-19T22:31:44.742Z,5.23
2023-04-19T22:34:11.808Z,5.24
2023-04-19T22:36:38.868Z,5.26
2023-04-19T22:39:05.942Z,5.27
2023-04-19T22:41:33.055Z,5.29
2023-04-19T22:44:00.405Z,5.32
2023-04-19T22:46:27.617Z,5.33
2023-04-19T22:48:56.067Z,5.33
2023-04-19T22:51:24.435Z,5.37
2023-04-19T22:53:51.525Z,5.39
2023-04-19T22:56:18.636Z,5.41
2023-04-19T22:58:45.781Z,5.43
2023-04-19T23:01:12.966Z,5.43
2023-04-19T23:03:40.238Z,5.45
2023-04-19T23:06:08.074Z,5.46
2023-04-19T23:08:35.172Z,5.46
2023-04-19T23:11:02.233Z,5.44
2023-04-19T23:13:29.303Z,5.45
2023-04-19T23:15:56.428Z,5.46
2023-04-19T23:18:23.610Z,5.44
2023-04-19T23:20:50.753Z,5.42
2023-04-19T23:23:19.813Z,5.38
2023-04-19T23:25:46.923Z,5.37
2023-04-19T23:28:13.970Z,5.32
2023-04-19T23:30:41.127Z,5.31
2023-04-19T23:33:08.151Z,5.30
2023-04-19T23:35:35.406Z,5.30
2023-04-19T23:38:02.656Z,5.33
2023-04-19T23:40:29.681Z,5.24
2023-04-19T23:42:56.746Z,5.25
2023-04-19T23:45:23.993Z,5.25
2023-04-19T23:47:51.084Z,5.27
2023-04-19T23:50:18.157Z,5.25
2023-04-19T23:52:45.479Z,5.22
2023-04-19T23:55:13.057Z,5.11
2023-04-19T23:57:40.404Z,5.15
